createdAt,value
2023-11-24T00:02:27.493Z,95924.22
2023-11-24T00:04:55.170Z,95849.44
2023-11-24T00:07:22.718Z,95917.28
2023-11-24T00:09:50.692Z,95920.53
2023-11-24T00:12:18.622Z,95906.91
2023-11-24T00:14:46.401Z,95917.81
2023-11-24T00:17:13.838Z,95914.47
2023-11-24T00:19:41.829Z,95914.34
2023-11-24T00:22:09.415Z,95909.06
2023-11-24T00:24:38.912Z,95896.78
2023-11-24T00:27:07.653Z,95899.03
2023-11-24T00:29:35.289Z,95893.22
2023-11-24T00:32:05.338Z,95885.38
2023-11-24T00:34:33.509Z,95883.59
2023-11-24T00:37:00.980Z,95863.31
2023-11-24T00:39:29.420Z,95875.34
2023-11-24T00:41:57.551Z,95830.13
2023-11-24T00:44:25.150Z,95842.38
2023-11-24T00:46:52.783Z,95849.66
2023-11-24T00:49:20.637Z,95781.13
2023-11-24T00:51:48.637Z,95811.53
2023-11-24T00:54:16.376Z,95814.72
2023-11-24T00:56:43.976Z,95836.50
2023-11-24T00:59:12.336Z,95818.06
2023-11-24T01:01:39.792Z,95790.91
2023-11-24T01:04:08.845Z,95840.47
2023-11-24T01:06:36.421Z,95817.81
2023-11-24T01:09:06.184Z,95821.84
2023-11-24T01:11:35.130Z,95830.19
2023-11-24T01:14:03.064Z,95821.59
2023-11-24T01:16:30.898Z,95805.59
2023-11-24T01:19:00.622Z,95813.84
2023-11-24T01:21:28.223Z,95800.56
2023-11-24T01:24:00.616Z,95766.16
2023-11-24T01:26:28.305Z,95796.66
2023-11-24T01:28:55.868Z,95786.22
2023-11-24T01:31:24.092Z,95775.19
2023-11-24T01:33:51.910Z,95777.88
2023-11-24T01:36:19.794Z,95719.53
2023-11-24T01:38:47.464Z,95759.34
2023-11-24T01:41:15.397Z,95758.19
2023-11-24T01:44:00.767Z,95752.28
2023-11-24T01:46:28.641Z,95688.50
2023-11-24T01:48:56.333Z,95734.84
2023-11-24T01:51:25.128Z,95730.81
2023-11-24T01:53:53.706Z,95724.47
2023-11-24T01:56:22.647Z,95716.53
2023-11-24T01:58:53.837Z,95652.59
2023-11-24T02:01:26.278Z,95713.66
2023-11-24T02:03:56.341Z,95696.31
2023-11-24T02:06:24.903Z,95710.00
2023-11-24T02:08:53.011Z,95681.78
2023-11-24T02:11:20.468Z,95691.38
2023-11-24T02:13:51.310Z,95695.00
2023-11-24T02:16:20.153Z,95652.91
2023-11-24T02:18:48.988Z,95680.41
2023-11-24T02:21:18.738Z,95684.22
2023-11-24T02:23:46.690Z,95615.72
2023-11-24T02:26:15.689Z,95671.81
2023-11-24T02:28:44.185Z,95600.66
2023-11-24T02:31:13.318Z,95662.16
2023-11-24T02:33:42.283Z,95628.16
2023-11-24T02:36:18.905Z,95649.84
2023-11-24T02:38:48.010Z,95626.31
2023-11-24T02:41:18.631Z,95590.81
2023-11-24T02:43:46.293Z,95613.78
2023-11-24T02:46:14.562Z,95573.75
2023-11-24T02:48:43.803Z,95650.25
2023-11-24T02:51:12.640Z,95642.16
2023-11-24T02:53:40.732Z,95641.13
2023-11-24T02:56:09.224Z,95637.91
2023-11-24T02:58:38.215Z,95581.34
2023-11-24T03:01:08.868Z,95631.16
2023-11-24T03:03:36.454Z,95634.81
2023-11-24T03:06:07.442Z,95587.34
2023-11-24T03:08:35.515Z,95629.09
2023-11-24T03:11:08.583Z,95622.16
2023-11-24T03:13:36.386Z,95622.63
2023-11-24T03:16:05.695Z,95564.13
2023-11-24T03:18:33.390Z,95598.94
2023-11-24T03:21:01.483Z,95609.56
2023-11-24T03:23:29.417Z,95597.66
2023-11-24T03:25:57.771Z,95609.22
2023-11-24T03:28:25.778Z,95542.38
2023-11-24T03:30:53.274Z,95597.97
2023-11-24T03:33:21.602Z,95595.59
2023-11-24T03:35:49.419Z,95592.78
2023-11-24T03:38:16.983Z,95586.75
2023-11-24T03:40:46.364Z,95528.66
2023-11-24T03:43:15.050Z,95571.41
2023-11-24T03:45:45.492Z,95587.00
2023-11-24T03:48:13.383Z,95584.56
2023-11-24T03:50:41.122Z,95452.31
2023-11-24T03:53:09.018Z,95485.63
2023-11-24T03:55:36.650Z,95567.06
2023-11-24T03:58:05.310Z,95577.84
2023-11-24T04:00:33.358Z,95550.72
2023-11-24T04:03:01.227Z,95549.66
2023-11-24T04:05:28.906Z,95565.72
2023-11-24T04:07:56.363Z,95513.41
2023-11-24T04:10:24.064Z,95560.94
2023-11-24T04:12:53.316Z,95558.16
2023-11-24T04:15:20.912Z,95519.28
2023-11-24T04:17:48.514Z,95549.19
2023-11-24T04:20:16.491Z,95546.31
2023-11-24T04:22:44.118Z,95544.53
2023-11-24T04:25:11.985Z,95516.53
2023-11-24T04:27:39.724Z,95511.72
2023-11-24T04:30:07.945Z,95521.53
2023-11-24T04:32:35.628Z,95451.03
2023-11-24T04:35:03.918Z,95516.81
2023-11-24T04:37:31.379Z,95535.28
2023-11-24T04:39:58.708Z,95513.31
2023-11-24T04:42:28.090Z,95478.69
2023-11-24T04:44:57.150Z,95448.03
2023-11-24T04:47:24.833Z,95521.88
2023-11-24T04:49:53.574Z,95454.56
2023-11-24T04:52:21.337Z,95517.53
2023-11-24T04:54:48.762Z,95504.28
2023-11-24T04:57:16.369Z,95502.41
2023-11-24T04:59:43.789Z,95506.63
2023-11-24T05:02:11.218Z,95508.47
2023-11-24T05:04:39.061Z,95485.88
2023-11-24T05:07:06.641Z,95493.16
2023-11-24T05:09:34.073Z,95496.91
2023-11-24T05:12:01.495Z,95505.25
2023-11-24T05:14:29.049Z,95496.09
2023-11-24T05:16:56.533Z,95476.25
2023-11-24T05:19:24.059Z,95491.16
2023-11-24T05:21:51.833Z,95442.91
2023-11-24T05:24:19.467Z,95471.88
2023-11-24T05:26:48.673Z,95483.91
2023-11-24T05:29:17.935Z,95490.59
2023-11-24T05:31:45.435Z,95483.69
2023-11-24T05:34:12.941Z,95470.28
2023-11-24T05:36:40.353Z,95479.81
2023-11-24T05:39:09.034Z,95439.75
2023-11-24T05:41:36.800Z,95473.75
2023-11-24T05:44:05.095Z,95465.41
2023-11-24T05:46:32.624Z,95480.84
2023-11-24T05:49:00.303Z,95475.19
2023-11-24T05:51:27.999Z,95419.28
2023-11-24T05:53:56.494Z,95481.50
2023-11-24T05:56:23.929Z,95457.53
2023-11-24T05:58:52.766Z,95458.34
2023-11-24T06:01:23.731Z,95422.69
2023-11-24T06:03:51.849Z,95462.63
2023-11-24T06:06:19.532Z,95444.75
2023-11-24T06:08:47.164Z,95450.59
2023-11-24T06:11:19.393Z,95433.97
2023-11-24T06:13:47.761Z,95442.88
2023-11-24T06:16:15.216Z,95448.53
2023-11-24T06:18:43.246Z,95370.22
2023-11-24T06:21:13.436Z,95444.66
2023-11-24T06:23:41.109Z,95440.56
2023-11-24T06:26:10.308Z,95448.75
2023-11-24T06:28:37.868Z,95437.81
2023-11-24T06:31:06.323Z,95439.00
2023-11-24T06:33:34.696Z,95435.75
2023-11-24T06:36:02.405Z,95430.66
2023-11-24T06:38:31.099Z,95438.25
2023-11-24T06:40:58.621Z,95438.19
2023-11-24T06:43:26.264Z,95442.88
2023-11-24T06:45:53.839Z,95441.34
2023-11-24T06:48:21.344Z,95445.94
2023-11-24T06:50:48.753Z,95434.63
2023-11-24T06:53:16.113Z,95436.59
2023-11-24T06:55:43.576Z,95440.28
2023-11-24T06:58:11.366Z,95435.72
2023-11-24T07:00:39.844Z,95426.97
2023-11-24T07:03:07.895Z,95421.81
2023-11-24T07:05:37.007Z,95420.72
2023-11-24T07:08:04.751Z,95421.25
2023-11-24T07:10:32.328Z,95423.94
2023-11-24T07:13:00.551Z,95377.63
2023-11-24T07:15:27.957Z,95413.41
2023-11-24T07:17:55.847Z,95356.56
2023-11-24T07:20:23.311Z,95414.09
2023-11-24T07:22:50.761Z,95389.34
2023-11-24T07:25:18.391Z,95363.22
2023-11-24T07:27:47.161Z,95426.47
2023-11-24T07:30:15.174Z,95418.97
2023-11-24T07:32:43.065Z,95377.81
2023-11-24T07:35:11.985Z,95317.06
2023-11-24T07:37:40.260Z,95419.66
2023-11-24T07:40:15.935Z,95420.44
2023-11-24T07:42:45.250Z,95419.25
2023-11-24T07:45:13.552Z,95419.31
2023-11-24T07:47:41.896Z,95367.13
2023-11-24T07:50:10.519Z,95415.22
2023-11-24T07:52:38.207Z,95418.47
2023-11-24T07:55:07.131Z,95414.00
2023-11-24T07:57:36.679Z,95419.56
2023-11-24T08:00:05.870Z,95417.00
2023-11-24T08:02:41.933Z,95412.34
2023-11-24T08:05:10.098Z,95410.09
2023-11-24T08:07:38.950Z,95407.00
2023-11-24T08:10:06.799Z,95333.47
2023-11-24T08:12:34.180Z,95346.44
2023-11-24T08:15:01.886Z,95421.91
2023-11-24T08:17:31.256Z,95430.81
2023-11-24T08:19:58.713Z,95356.22
2023-11-24T08:22:27.821Z,95410.31
2023-11-24T08:24:57.352Z,95360.38
2023-11-24T08:27:24.774Z,95423.03
2023-11-24T08:29:52.877Z,95381.22
2023-11-24T08:32:21.484Z,95402.19
2023-11-24T08:34:49.107Z,95408.00
2023-11-24T08:37:16.598Z,95398.22
2023-11-24T08:39:45.026Z,95388.13
2023-11-24T08:42:12.563Z,95390.00
2023-11-24T08:44:40.532Z,95382.47
2023-11-24T08:47:08.359Z,95381.75
2023-11-24T08:49:36.872Z,95378.09
2023-11-24T08:52:04.735Z,95373.00
2023-11-24T08:54:32.716Z,95387.53
2023-11-24T08:57:00.197Z,95381.84
2023-11-24T08:59:27.504Z,95386.63
2023-11-24T09:01:56.611Z,95378.19
2023-11-24T09:04:24.300Z,95376.31
2023-11-24T09:06:51.737Z,95372.81
2023-11-24T09:09:19.429Z,95374.66
2023-11-24T09:11:48.217Z,95366.63
2023-11-24T09:14:15.939Z,95291.53
2023-11-24T09:16:43.553Z,95278.84
2023-11-24T09:19:11.123Z,95337.31
2023-11-24T09:21:38.794Z,95296.47
2023-11-24T09:24:06.858Z,95367.94
2023-11-24T09:26:34.156Z,95373.22
2023-11-24T09:29:02.007Z,95368.41
2023-11-24T09:31:31.854Z,95364.19
2023-11-24T09:33:59.423Z,95356.75
2023-11-24T09:36:27.235Z,95359.31
2023-11-24T09:38:54.687Z,95323.34
2023-11-24T09:41:22.095Z,95355.88
2023-11-24T09:43:50.495Z,95368.47
2023-11-24T09:46:18.593Z,95370.13
2023-11-24T09:48:47.438Z,95369.50
2023-11-24T09:51:18.354Z,95350.56
2023-11-24T09:53:47.217Z,95376.00
2023-11-24T09:56:14.736Z,95387.53
2023-11-24T09:58:43.803Z,95349.03
2023-11-24T10:01:18.371Z,95391.97
2023-11-24T10:03:51.597Z,95314.59
2023-11-24T10:06:20.401Z,95389.94
2023-11-24T10:08:48.253Z,95394.94
2023-11-24T10:11:19.353Z,95393.28
2023-11-24T10:13:49.337Z,95342.19
2023-11-24T10:16:18.752Z,95396.03
2023-11-24T10:18:47.506Z,95399.16
2023-11-24T10:21:23.810Z,95384.19
2023-11-24T10:24:03.658Z,95388.63
2023-11-24T10:26:31.221Z,95390.97
2023-11-24T10:28:58.825Z,95392.34
2023-11-24T10:31:27.567Z,95402.97
2023-11-24T10:33:55.429Z,95394.53
2023-11-24T10:36:26.735Z,95393.44
2023-11-24T10:39:02.263Z,95394.34
2023-11-24T10:41:53.018Z,95402.19
2023-11-24T10:44:22.743Z,95409.88
2023-11-24T10:46:56.819Z,95406.25
2023-11-24T10:49:38.082Z,95409.94
2023-11-24T10:52:13.684Z,95409.03
2023-11-24T10:54:49.110Z,95419.69
2023-11-24T10:57:20.904Z,95401.63
2023-11-24T10:59:50.236Z,95416.97
2023-11-24T11:02:18.388Z,95418.06
2023-11-24T11:05:02.510Z,95423.44
2023-11-24T11:07:37.529Z,95434.09
2023-11-24T11:10:14.897Z,95416.41
2023-11-24T11:12:55.737Z,95447.25
2023-11-24T11:15:29.761Z,95446.94
2023-11-24T11:18:10.396Z,95450.09
2023-11-24T11:20:42.665Z,95447.28
2023-11-24T11:23:10.714Z,95456.44
2023-11-24T11:25:39.754Z,95454.63
2023-11-24T11:28:19.575Z,95451.78
2023-11-24T11:31:00.091Z,95462.00
2023-11-24T11:33:30.646Z,95460.59
2023-11-24T11:36:06.986Z,95467.59
2023-11-24T11:38:42.120Z,95469.47
2023-11-24T11:41:10.487Z,95476.09
2023-11-24T11:43:54.934Z,95476.22
2023-11-24T11:46:24.196Z,95475.03
2023-11-24T11:48:53.245Z,95469.47
2023-11-24T11:51:23.723Z,95486.25
2023-11-24T11:53:52.412Z,95485.94
2023-11-24T11:56:22.406Z,95494.56
2023-11-24T11:58:50.251Z,95496.25
2023-11-24T12:01:17.805Z,95500.97
2023-11-24T12:03:45.351Z,95507.22
2023-11-24T12:06:12.957Z,95443.34
2023-11-24T12:08:40.544Z,95506.97
2023-11-24T12:11:08.194Z,95463.28
2023-11-24T12:13:40.553Z,95511.88
2023-11-24T12:16:09.782Z,95520.13
2023-11-24T12:18:37.711Z,95490.72
2023-11-24T12:21:06.112Z,95536.31
2023-11-24T12:23:33.827Z,95511.56
2023-11-24T12:26:01.450Z,95537.81
2023-11-24T12:28:29.107Z,95511.06
2023-11-24T12:30:57.059Z,95519.56
2023-11-24T12:33:26.174Z,95542.31
2023-11-24T12:35:56.752Z,95557.47
2023-11-24T12:38:24.253Z,95555.88
2023-11-24T12:40:52.769Z,95558.72
2023-11-24T12:43:23.231Z,95575.72
2023-11-24T12:45:53.497Z,95579.63
2023-11-24T12:48:36.462Z,95570.88
2023-11-24T12:51:05.020Z,95534.69
2023-11-24T12:53:34.480Z,95589.69
2023-11-24T12:56:02.833Z,95600.63
2023-11-24T12:58:31.249Z,95589.28
2023-11-24T13:00:58.726Z,95606.28
2023-11-24T13:03:26.221Z,95605.50
2023-11-24T13:05:53.773Z,95597.00
2023-11-24T13:08:21.708Z,95592.94
2023-11-24T13:10:50.007Z,95589.97
2023-11-24T13:13:17.666Z,95568.59
2023-11-24T13:15:45.104Z,95609.47
2023-11-24T13:18:12.906Z,95601.28
2023-11-24T13:20:40.586Z,95605.34
2023-11-24T13:23:08.032Z,95572.78
2023-11-24T13:25:37.922Z,95616.31
2023-11-24T13:28:06.987Z,95611.38
2023-11-24T13:30:34.967Z,95614.28
2023-11-24T13:33:03.934Z,95582.56
2023-11-24T13:35:32.534Z,95637.50
2023-11-24T13:38:00.082Z,95642.13
2023-11-24T13:40:32.458Z,95654.09
2023-11-24T13:43:00.699Z,95650.28
2023-11-24T13:45:28.636Z,95651.81
2023-11-24T13:47:58.657Z,95659.47
2023-11-24T13:50:26.683Z,95627.94
2023-11-24T13:53:00.004Z,95660.22
2023-11-24T13:55:35.604Z,95670.03
2023-11-24T13:58:04.195Z,95676.22
2023-11-24T14:00:32.823Z,95670.78
2023-11-24T14:03:00.641Z,95672.38
2023-11-24T14:05:28.166Z,95676.69
2023-11-24T14:07:55.572Z,95677.81
2023-11-24T14:10:23.364Z,95676.31
2023-11-24T14:12:51.077Z,95625.53
2023-11-24T14:15:18.763Z,95615.34
2023-11-24T14:17:46.346Z,95683.22
2023-11-24T14:20:14.645Z,95644.31
2023-11-24T14:22:42.578Z,95698.19
2023-11-24T14:25:10.393Z,95700.94
2023-11-24T14:27:41.217Z,95711.69
2023-11-24T14:30:09.637Z,95721.03
2023-11-24T14:32:37.232Z,95728.88
2023-11-24T14:35:07.506Z,95734.69
2023-11-24T14:37:34.929Z,95747.59
2023-11-24T14:40:02.907Z,95758.63
2023-11-24T14:42:32.265Z,95718.59
2023-11-24T14:44:59.809Z,95767.59
2023-11-24T14:47:28.183Z,95745.81
2023-11-24T14:49:55.817Z,95762.50
2023-11-24T14:52:24.848Z,95761.63
2023-11-24T14:54:52.491Z,95768.06
2023-11-24T14:57:19.957Z,95773.63
2023-11-24T14:59:49.736Z,95778.13
2023-11-24T15:02:18.150Z,95723.25
2023-11-24T15:04:45.824Z,95792.72
2023-11-24T15:07:14.629Z,95788.03
2023-11-24T15:09:44.865Z,95739.69
2023-11-24T15:12:12.764Z,95745.34
2023-11-24T15:14:43.060Z,95800.75
2023-11-24T15:17:17.366Z,95826.56
2023-11-24T15:19:48.216Z,95809.63
2023-11-24T15:22:20.437Z,95813.75
2023-11-24T15:24:54.469Z,95830.69
2023-11-24T15:27:22.263Z,95825.88
2023-11-24T15:29:50.200Z,95820.22
2023-11-24T15:32:20.325Z,95830.41
2023-11-24T15:34:47.761Z,95796.84
2023-11-24T15:37:15.360Z,95764.28
2023-11-24T15:39:44.492Z,95813.88
2023-11-24T15:42:16.266Z,95852.78
2023-11-24T15:44:46.086Z,95862.16
2023-11-24T15:47:13.736Z,95803.13
2023-11-24T15:49:43.048Z,95866.50
2023-11-24T15:52:14.999Z,95872.69
2023-11-24T15:54:44.480Z,95840.97
2023-11-24T15:57:13.524Z,95865.09
2023-11-24T15:59:47.297Z,95869.72
2023-11-24T16:02:24.201Z,95877.44
2023-11-24T16:04:57.815Z,95868.66
2023-11-24T16:07:34.044Z,95828.06
2023-11-24T16:10:16.830Z,95879.44
2023-11-24T16:12:45.505Z,95884.94
2023-11-24T16:15:17.611Z,95893.78
2023-11-24T16:17:47.009Z,95850.47
2023-11-24T16:20:14.512Z,95894.38
2023-11-24T16:22:42.281Z,95902.72
2023-11-24T16:25:10.539Z,95907.03
2023-11-24T16:27:42.334Z,95906.84
2023-11-24T16:30:10.688Z,95905.53
2023-11-24T16:32:38.261Z,95914.72
2023-11-24T16:35:09.603Z,95852.88
2023-11-24T16:37:37.253Z,95917.09
2023-11-24T16:40:10.644Z,95929.03
2023-11-24T16:42:38.418Z,95912.09
2023-11-24T16:45:09.895Z,95884.69
2023-11-24T16:47:38.823Z,95920.72
2023-11-24T16:50:09.402Z,95945.91
2023-11-24T16:52:47.557Z,95937.88
2023-11-24T16:55:15.909Z,95941.09
2023-11-24T16:57:43.579Z,95952.19
2023-11-24T17:00:14.909Z,95952.03
2023-11-24T17:02:43.390Z,95954.41
2023-11-24T17:05:11.933Z,95955.34
2023-11-24T17:07:39.376Z,95953.97
2023-11-24T17:10:09.664Z,95959.00
2023-11-24T17:12:37.593Z,95970.22
2023-11-24T17:15:06.086Z,95977.94
2023-11-24T17:17:35.654Z,95974.50
2023-11-24T17:20:03.365Z,95906.22
2023-11-24T17:22:31.402Z,95976.88
2023-11-24T17:24:59.103Z,95976.69
2023-11-24T17:27:26.783Z,95972.69
2023-11-24T17:29:54.988Z,95991.28
2023-11-24T17:32:23.461Z,96004.63
2023-11-24T17:34:51.127Z,95993.47
2023-11-24T17:37:18.678Z,95993.97
2023-11-24T17:39:46.328Z,96003.38
2023-11-24T17:42:13.888Z,96001.72
2023-11-24T17:44:41.955Z,95970.31
2023-11-24T17:47:10.734Z,95926.16
2023-11-24T17:49:38.867Z,95969.03
2023-11-24T17:52:06.461Z,96002.44
2023-11-24T17:54:34.665Z,96013.53
2023-11-24T17:57:02.358Z,95969.56
2023-11-24T17:59:29.825Z,96023.34
2023-11-24T18:01:57.859Z,96012.59
2023-11-24T18:04:25.891Z,96003.88
2023-11-24T18:06:53.413Z,96020.78
2023-11-24T18:09:21.905Z,95993.28
2023-11-24T18:11:51.218Z,96035.97
2023-11-24T18:14:20.895Z,95978.69
2023-11-24T18:16:49.274Z,96039.78
2023-11-24T18:19:16.951Z,96044.69
2023-11-24T18:21:44.443Z,96055.28
2023-11-24T18:24:12.681Z,96064.19
2023-11-24T18:26:40.639Z,96080.97
2023-11-24T18:29:08.095Z,95983.16
2023-11-24T18:31:37.650Z,96075.59
2023-11-24T18:34:09.081Z,96071.00
2023-11-24T18:36:37.712Z,96091.91
2023-11-24T18:39:05.252Z,96089.22
2023-11-24T18:41:32.974Z,96021.44
2023-11-24T18:44:00.602Z,96093.13
2023-11-24T18:46:28.197Z,96088.56
2023-11-24T18:48:55.967Z,96099.91
2023-11-24T18:51:23.485Z,96099.09
2023-11-24T18:53:52.816Z,96105.88
2023-11-24T18:56:23.079Z,96106.22
2023-11-24T18:58:51.249Z,96097.31
2023-11-24T19:01:19.025Z,96090.63
2023-11-24T19:03:46.919Z,96069.69
2023-11-24T19:06:15.122Z,96075.13
2023-11-24T19:08:43.201Z,96087.38
2023-11-24T19:11:13.660Z,96015.34
2023-11-24T19:13:43.241Z,96011.91
2023-11-24T19:16:11.237Z,96080.56
2023-11-24T19:18:38.955Z,96092.25
2023-11-24T19:21:14.778Z,96043.19
2023-11-24T19:23:42.603Z,96096.47
2023-11-24T19:26:13.367Z,96066.50
2023-11-24T19:28:44.531Z,96088.38
2023-11-24T19:31:12.497Z,96041.25
2023-11-24T19:33:40.273Z,96090.97
2023-11-24T19:36:08.395Z,96102.97
2023-11-24T19:38:35.777Z,96067.03
2023-11-24T19:41:03.095Z,96104.81
2023-11-24T19:43:32.636Z,96107.72
2023-11-24T19:46:00.694Z,96104.59
2023-11-24T19:48:31.113Z,96050.19
2023-11-24T19:50:59.542Z,96026.50
2023-11-24T19:53:27.033Z,96107.50
2023-11-24T19:55:54.566Z,96119.44
2023-11-24T19:58:22.978Z,96060.19
2023-11-24T20:00:51.839Z,96102.75
2023-11-24T20:03:19.800Z,96097.19
2023-11-24T20:05:47.334Z,96054.75
2023-11-24T20:08:15.149Z,96103.06
2023-11-24T20:10:43.640Z,96132.44
2023-11-24T20:13:11.203Z,96141.75
2023-11-24T20:15:39.607Z,96131.72
2023-11-24T20:18:07.328Z,96045.06
2023-11-24T20:20:38.012Z,96057.44
2023-11-24T20:23:07.605Z,96152.41
2023-11-24T20:25:35.329Z,96153.69
2023-11-24T20:28:03.006Z,96124.66
2023-11-24T20:30:30.587Z,96145.72
2023-11-24T20:32:58.169Z,96056.88
2023-11-24T20:35:25.896Z,96175.19
2023-11-24T20:37:53.541Z,96178.31
2023-11-24T20:40:21.035Z,96182.72
2023-11-24T20:42:49.626Z,96193.88
2023-11-24T20:45:17.031Z,96205.59
2023-11-24T20:47:44.602Z,96216.41
2023-11-24T20:50:12.425Z,96223.38
2023-11-24T20:52:40.100Z,96213.69
2023-11-24T20:55:10.676Z,96212.38
2023-11-24T20:57:38.188Z,96214.81
2023-11-24T21:00:11.850Z,96219.63
2023-11-24T21:02:40.592Z,96226.19
2023-11-24T21:05:10.060Z,96227.97
2023-11-24T21:07:37.649Z,96220.53
2023-11-24T21:10:06.338Z,96188.69
2023-11-24T21:12:38.249Z,96215.72
2023-11-24T21:15:06.261Z,96219.09
2023-11-24T21:17:34.146Z,96210.69
2023-11-24T21:20:01.607Z,96211.19
2023-11-24T21:22:31.840Z,96148.19
2023-11-24T21:25:00.601Z,96223.63
2023-11-24T21:27:28.017Z,96226.03
2023-11-24T21:29:55.328Z,96214.28
2023-11-24T21:32:23.567Z,96197.00
2023-11-24T21:34:52.419Z,96191.31
2023-11-24T21:37:20.052Z,96220.81
2023-11-24T21:39:47.630Z,96232.75
2023-11-24T21:42:15.228Z,96217.97
2023-11-24T21:44:45.959Z,96221.97
2023-11-24T21:47:13.854Z,96231.81
2023-11-24T21:49:41.926Z,96186.38
2023-11-24T21:52:10.160Z,96231.94
2023-11-24T21:54:38.245Z,96232.88
2023-11-24T21:57:05.891Z,96216.72
2023-11-24T21:59:33.177Z,96234.56
2023-11-24T22:02:00.991Z,96217.66
2023-11-24T22:04:28.610Z,96239.06
2023-11-24T22:06:56.363Z,96239.16
2023-11-24T22:09:24.042Z,96230.06
2023-11-24T22:11:52.084Z,96231.97
2023-11-24T22:14:23.386Z,96232.00
2023-11-24T22:16:51.289Z,96182.47
2023-11-24T22:19:20.495Z,96224.28
2023-11-24T22:21:49.811Z,96238.97
2023-11-24T22:24:17.409Z,96233.06
2023-11-24T22:26:44.909Z,96234.66
2023-11-24T22:29:12.520Z,96231.25
2023-11-24T22:31:40.961Z,96245.94
2023-11-24T22:34:08.735Z,96246.47
2023-11-24T22:36:36.117Z,96228.41
2023-11-24T22:39:04.157Z,96248.78
2023-11-24T22:41:34.149Z,96243.75
2023-11-24T22:44:01.776Z,96235.69
2023-11-24T22:46:29.636Z,96235.16
2023-11-24T22:48:57.163Z,96243.66
2023-11-24T22:51:27.494Z,96242.22
2023-11-24T22:53:55.333Z,96248.69
2023-11-24T22:56:26.803Z,96251.94
2023-11-24T22:59:00.273Z,96251.78
2023-11-24T23:01:28.766Z,96247.22
2023-11-24T23:03:57.849Z,96258.25
2023-11-24T23:06:26.702Z,96244.81
2023-11-24T23:08:56.724Z,96255.47
2023-11-24T23:11:24.939Z,96266.34
2023-11-24T23:13:52.981Z,96269.16
2023-11-24T23:16:26.352Z,96268.88
2023-11-24T23:18:54.538Z,96239.75
2023-11-24T23:21:25.273Z,96279.69
2023-11-24T23:23:52.928Z,96281.25
2023-11-24T23:26:21.156Z,96245.03
2023-11-24T23:28:51.697Z,96279.34
2023-11-24T23:31:19.979Z,96173.34
2023-11-24T23:33:48.111Z,96273.06
2023-11-24T23:36:16.677Z,96291.00
2023-11-24T23:38:45.956Z,96286.69
2023-11-24T23:41:14.008Z,96279.22
2023-11-24T23:43:41.657Z,96303.56
2023-11-24T23:46:11.249Z,96302.41
2023-11-24T23:48:40.576Z,96263.34
2023-11-24T23:51:08.320Z,96295.50
2023-11-24T23:53:35.865Z,96306.22
2023-11-24T23:56:03.920Z,96302.69
2023-11-24T23:58:33.018Z,96287.69
